sensor_id;sensor_type;location;lat;lon;timestamp;pressure;altitude;pressure_sealevel;temperature;humidity
19843;BME280;10082;51.038;6.992;2023-06-14T00:00:33;112171.53;;;-144.33;56.47
19843;BME280;10082;51.038;6.992;2023-06-14T00:03:03;112171.53;;;-144.33;56.64
19843;BME280;10082;51.038;6.992;2023-06-14T00:05:34;112171.53;;;-144.33;56.85
19843;BME280;10082;51.038;6.992;2023-06-14T00:08:06;112171.53;;;-144.33;57.12
19843;BME280;10082;51.038;6.992;2023-06-14T00:10:34;112171.53;;;-144.33;57.59
19843;BME280;10082;51.038;6.992;2023-06-14T00:13:02;112171.53;;;-144.33;57.76
19843;BME280;10082;51.038;6.992;2023-06-14T00:15:30;112171.53;;;-144.33;57.80
19843;BME280;10082;51.038;6.992;2023-06-14T00:17:58;112171.53;;;-144.33;57.95
19843;BME280;10082;51.038;6.992;2023-06-14T00:20:28;112171.53;;;-144.33;58.21
19843;BME280;10082;51.038;6.992;2023-06-14T00:22:56;112171.53;;;-144.33;58.76
19843;BME280;10082;51.038;6.992;2023-06-14T00:25:24;112171.53;;;-144.33;59.41
19843;BME280;10082;51.038;6.992;2023-06-14T00:27:55;112171.53;;;-144.33;60.14
19843;BME280;10082;51.038;6.992;2023-06-14T00:30:24;112171.53;;;-144.33;59.39
19843;BME280;10082;51.038;6.992;2023-06-14T00:32:56;112171.53;;;-144.33;59.03
19843;BME280;10082;51.038;6.992;2023-06-14T00:35:25;112171.53;;;-144.33;59.46
19843;BME280;10082;51.038;6.992;2023-06-14T00:37:54;112171.53;;;-144.33;60.27
19843;BME280;10082;51.038;6.992;2023-06-14T00:40:21;112171.53;;;-144.33;60.58
19843;BME280;10082;51.038;6.992;2023-06-14T00:42:49;112171.53;;;-144.33;61.28
19843;BME280;10082;51.038;6.992;2023-06-14T00:45:16;112171.53;;;-144.33;61.59
19843;BME280;10082;51.038;6.992;2023-06-14T00:47:46;112171.53;;;-144.33;63.30
19843;BME280;10082;51.038;6.992;2023-06-14T00:50:16;112171.53;;;-144.33;62.90
19843;BME280;10082;51.038;6.992;2023-06-14T00:52:44;112171.53;;;-144.33;62.84
19843;BME280;10082;51.038;6.992;2023-06-14T00:55:13;112171.53;;;-144.33;62.41
19843;BME280;10082;51.038;6.992;2023-06-14T00:57:41;112171.53;;;-144.33;62.46
19843;BME280;10082;51.038;6.992;2023-06-14T01:00:13;112171.53;;;-144.33;63.31
19843;BME280;10082;51.038;6.992;2023-06-14T01:02:41;112171.53;;;-144.33;62.73
19843;BME280;10082;51.038;6.992;2023-06-14T01:05:10;112171.53;;;-144.33;62.76
19843;BME280;10082;51.038;6.992;2023-06-14T01:07:51;112171.53;;;-144.33;61.63
19843;BME280;10082;51.038;6.992;2023-06-14T01:10:32;112171.53;;;-144.33;62.10
19843;BME280;10082;51.038;6.992;2023-06-14T01:13:08;112171.53;;;-144.33;61.70
19843;BME280;10082;51.038;6.992;2023-06-14T01:15:38;112171.53;;;-144.33;62.90
19843;BME280;10082;51.038;6.992;2023-06-14T01:18:08;112171.53;;;-144.33;63.78
19843;BME280;10082;51.038;6.992;2023-06-14T01:20:43;112171.53;;;-144.33;64.73
19843;BME280;10082;51.038;6.992;2023-06-14T01:23:14;112171.53;;;-144.33;64.42
19843;BME280;10082;51.038;6.992;2023-06-14T01:25:41;112171.53;;;-144.33;64.50
19843;BME280;10082;51.038;6.992;2023-06-14T01:28:17;112171.53;;;-144.33;66.73
19843;BME280;10082;51.038;6.992;2023-06-14T01:30:48;112171.53;;;-144.33;66.56
19843;BME280;10082;51.038;6.992;2023-06-14T01:33:19;112171.53;;;-144.33;67.24
19843;BME280;10082;51.038;6.992;2023-06-14T01:35:48;112171.53;;;-144.33;67.68
19843;BME280;10082;51.038;6.992;2023-06-14T01:38:19;112171.53;;;-144.33;68.53
19843;BME280;10082;51.038;6.992;2023-06-14T01:40:50;112171.53;;;-144.33;67.54
19843;BME280;10082;51.038;6.992;2023-06-14T01:43:19;112171.53;;;-144.33;66.60
19843;BME280;10082;51.038;6.992;2023-06-14T01:45:48;112171.53;;;-144.33;67.57
19843;BME280;10082;51.038;6.992;2023-06-14T01:48:16;112171.53;;;-144.33;68.72
19843;BME280;10082;51.038;6.992;2023-06-14T01:50:44;112171.53;;;-144.33;69.53
19843;BME280;10082;51.038;6.992;2023-06-14T01:53:11;112171.53;;;-144.33;70.52
19843;BME280;10082;51.038;6.992;2023-06-14T01:55:40;112171.53;;;-144.33;70.52
19843;BME280;10082;51.038;6.992;2023-06-14T01:58:09;112171.53;;;-144.33;71.45
19843;BME280;10082;51.038;6.992;2023-06-14T02:00:36;112171.53;;;-144.33;72.23
19843;BME280;10082;51.038;6.992;2023-06-14T02:03:04;112171.53;;;-144.33;71.63
19843;BME280;10082;51.038;6.992;2023-06-14T02:05:32;112171.53;;;-144.33;71.81
19843;BME280;10082;51.038;6.992;2023-06-14T02:08:00;112171.53;;;-144.33;71.66
19843;BME280;10082;51.038;6.992;2023-06-14T02:10:28;112171.53;;;-144.33;71.77
19843;BME280;10082;51.038;6.992;2023-06-14T02:12:57;112171.53;;;-144.33;71.78
19843;BME280;10082;51.038;6.992;2023-06-14T02:15:24;112171.53;;;-144.33;72.24
19843;BME280;10082;51.038;6.992;2023-06-14T02:18:00;112171.53;;;-144.33;71.12
19843;BME280;10082;51.038;6.992;2023-06-14T02:20:28;112171.53;;;-144.33;71.47
19843;BME280;10082;51.038;6.992;2023-06-14T02:22:56;112171.53;;;-144.33;72.49
19843;BME280;10082;51.038;6.992;2023-06-14T02:25:24;112171.53;;;-144.33;74.08
19843;BME280;10082;51.038;6.992;2023-06-14T02:27:53;112171.53;;;-144.33;74.92
19843;BME280;10082;51.038;6.992;2023-06-14T02:30:22;112171.53;;;-144.33;75.77
19843;BME280;10082;51.038;6.992;2023-06-14T02:32:49;112171.53;;;-144.33;75.01
19843;BME280;10082;51.038;6.992;2023-06-14T02:35:17;112171.53;;;-144.33;75.58
19843;BME280;10082;51.038;6.992;2023-06-14T02:37:44;112171.53;;;-144.33;77.37
19843;BME280;10082;51.038;6.992;2023-06-14T02:40:11;112171.53;;;-144.33;80.09
19843;BME280;10082;51.038;6.992;2023-06-14T02:42:39;112171.53;;;-144.33;82.21
19843;BME280;10082;51.038;6.992;2023-06-14T02:45:08;112171.53;;;-144.33;84.76
19843;BME280;10082;51.038;6.992;2023-06-14T02:47:37;112171.53;;;-144.33;84.81
19843;BME280;10082;51.038;6.992;2023-06-14T02:50:05;112171.53;;;-144.33;85.29
19843;BME280;10082;51.038;6.992;2023-06-14T02:52:34;112171.53;;;-144.33;85.97
19843;BME280;10082;51.038;6.992;2023-06-14T02:55:01;112171.53;;;-144.33;87.44
19843;BME280;10082;51.038;6.992;2023-06-14T02:57:29;112171.53;;;-144.33;88.26
19843;BME280;10082;51.038;6.992;2023-06-14T02:59:56;112171.53;;;-144.33;89.37
19843;BME280;10082;51.038;6.992;2023-06-14T03:02:24;112171.53;;;-144.33;91.97
19843;BME280;10082;51.038;6.992;2023-06-14T03:04:53;112171.53;;;-144.33;90.88
19843;BME280;10082;51.038;6.992;2023-06-14T03:07:22;112171.53;;;-144.33;90.61
19843;BME280;10082;51.038;6.992;2023-06-14T03:09:53;112171.53;;;-144.33;90.35
19843;BME280;10082;51.038;6.992;2023-06-14T03:12:20;112171.53;;;-144.33;89.81
19843;BME280;10082;51.038;6.992;2023-06-14T03:14:52;112171.53;;;-144.33;89.18
19843;BME280;10082;51.038;6.992;2023-06-14T03:17:23;112171.53;;;-144.33;87.80
19843;BME280;10082;51.038;6.992;2023-06-14T03:20:01;112171.53;;;-144.33;86.43
19843;BME280;10082;51.038;6.992;2023-06-14T03:22:30;112171.53;;;-144.33;85.19
19843;BME280;10082;51.038;6.992;2023-06-14T03:25:00;112171.53;;;-144.33;86.20
19843;BME280;10082;51.038;6.992;2023-06-14T03:27:31;112171.53;;;-144.33;89.42
19843;BME280;10082;51.038;6.992;2023-06-14T03:29:59;112171.53;;;-144.33;91.58
19843;BME280;10082;51.038;6.992;2023-06-14T03:32:27;112171.53;;;-144.33;92.48
19843;BME280;10082;51.038;6.992;2023-06-14T03:34:55;112171.53;;;-144.33;94.62
19843;BME280;10082;51.038;6.992;2023-06-14T03:37:25;112171.53;;;-144.33;95.44
19843;BME280;10082;51.038;6.992;2023-06-14T03:39:52;112171.53;;;-144.33;94.72
19843;BME280;10082;51.038;6.992;2023-06-14T03:42:23;112171.53;;;-144.33;93.58
19843;BME280;10082;51.038;6.992;2023-06-14T03:44:50;112171.53;;;-144.33;94.52
19843;BME280;10082;51.038;6.992;2023-06-14T03:47:20;112171.53;;;-144.33;97.02
19843;BME280;10082;51.038;6.992;2023-06-14T03:49:47;112171.53;;;-144.33;97.85
19843;BME280;10082;51.038;6.992;2023-06-14T03:52:15;112171.53;;;-144.33;98.55
19843;BME280;10082;51.038;6.992;2023-06-14T03:54:46;112171.53;;;-144.33;98.59
19843;BME280;10082;51.038;6.992;2023-06-14T03:57:15;112171.53;;;-144.33;99.04
19843;BME280;10082;51.038;6.992;2023-06-14T03:59:43;112171.53;;;-144.33;98.92
19843;BME280;10082;51.038;6.992;2023-06-14T04:02:11;112171.53;;;-144.33;99.26
19843;BME280;10082;51.038;6.992;2023-06-14T04:04:41;112171.53;;;-144.33;100.00
19843;BME280;10082;51.038;6.992;2023-06-14T04:07:10;112171.53;;;-144.33;100.00
19843;BME280;10082;51.038;6.992;2023-06-14T04:09:38;112171.53;;;-144.33;100.00
19843;BME280;10082;51.038;6.992;2023-06-14T04:12:08;112171.53;;;-144.33;100.00
19843;BME280;10082;51.038;6.992;2023-06-14T04:14:37;112171.53;;;-144.33;100.00
19843;BME280;10082;51.038;6.992;2023-06-14T04:17:04;112171.53;;;-144.33;100.00
19843;BME280;10082;51.038;6.992;2023-06-14T04:19:33;112171.53;;;-144.33;100.00
19843;BME280;10082;51.038;6.992;2023-06-14T04:22:01;112171.53;;;-144.33;100.00
19843;BME280;10082;51.038;6.992;2023-06-14T04:24:30;112171.53;;;-144.33;100.00
19843;BME280;10082;51.038;6.992;2023-06-14T04:27:00;112171.53;;;-144.33;98.48
19843;BME280;10082;51.038;6.992;2023-06-14T04:29:30;112171.53;;;-144.33;99.23
19843;BME280;10082;51.038;6.992;2023-06-14T04:32:05;112171.53;;;-144.33;97.84
19843;BME280;10082;51.038;6.992;2023-06-14T04:34:37;112171.53;;;-144.33;95.28
19843;BME280;10082;51.038;6.992;2023-06-14T04:37:06;112171.53;;;-144.33;95.14
19843;BME280;10082;51.038;6.992;2023-06-14T04:39:40;112171.53;;;-144.33;93.97
19843;BME280;10082;51.038;6.992;2023-06-14T04:42:08;112171.53;;;-144.33;89.32
19843;BME280;10082;51.038;6.992;2023-06-14T04:44:38;112171.53;;;-144.33;86.54
19843;BME280;10082;51.038;6.992;2023-06-14T04:47:06;112171.53;;;-144.33;84.10
19843;BME280;10082;51.038;6.992;2023-06-14T04:49:33;112171.53;;;-144.33;81.18
19843;BME280;10082;51.038;6.992;2023-06-14T04:52:00;112171.53;;;-144.33;77.32
19843;BME280;10082;51.038;6.992;2023-06-14T04:54:33;112171.53;;;-144.33;74.62
19843;BME280;10082;51.038;6.992;2023-06-14T04:57:03;112171.53;;;-144.33;72.54
19843;BME280;10082;51.038;6.992;2023-06-14T04:59:31;112171.53;;;-144.33;70.61
19843;BME280;10082;51.038;6.992;2023-06-14T05:02:03;112171.53;;;-144.33;67.97
19843;BME280;10082;51.038;6.992;2023-06-14T05:04:30;112171.53;;;-144.33;64.60
19843;BME280;10082;51.038;6.992;2023-06-14T05:06:58;112171.53;;;-144.33;62.99
19843;BME280;10082;51.038;6.992;2023-06-14T05:09:26;112171.53;;;-144.33;61.75
19843;BME280;10082;51.038;6.992;2023-06-14T05:11:53;112171.53;;;-144.33;60.88
19843;BME280;10082;51.038;6.992;2023-06-14T05:14:21;112171.53;;;-144.33;58.04
19843;BME280;10082;51.038;6.992;2023-06-14T05:16:50;112171.53;;;-144.33;56.72
19843;BME280;10082;51.038;6.992;2023-06-14T05:19:18;112171.53;;;-144.33;55.71
19843;BME280;10082;51.038;6.992;2023-06-14T05:21:46;112171.53;;;-144.33;55.22
19843;BME280;10082;51.038;6.992;2023-06-14T05:24:13;112171.53;;;-144.33;55.62
19843;BME280;10082;51.038;6.992;2023-06-14T05:26:40;112171.53;;;-144.33;55.07
19843;BME280;10082;51.038;6.992;2023-06-14T05:29:07;112171.53;;;-144.33;54.63
19843;BME280;10082;51.038;6.992;2023-06-14T05:31:35;112171.53;;;-144.33;53.18
19843;BME280;10082;51.038;6.992;2023-06-14T05:34:02;112171.53;;;-144.33;53.13
19843;BME280;10082;51.038;6.992;2023-06-14T05:36:30;112171.53;;;-144.33;52.71
19843;BME280;10082;51.038;6.992;2023-06-14T05:38:57;112171.53;;;-144.33;52.16
19843;BME280;10082;51.038;6.992;2023-06-14T05:41:25;112171.53;;;-144.33;51.58
19843;BME280;10082;51.038;6.992;2023-06-14T05:43:53;112171.53;;;-144.33;52.82
19843;BME280;10082;51.038;6.992;2023-06-14T05:46:20;112171.53;;;-144.33;53.20
19843;BME280;10082;51.038;6.992;2023-06-14T05:48:50;112171.53;;;-144.33;51.48
19843;BME280;10082;51.038;6.992;2023-06-14T05:51:17;112171.53;;;-144.33;51.94
19843;BME280;10082;51.038;6.992;2023-06-14T05:53:47;112171.53;;;-144.33;50.40
19843;BME280;10082;51.038;6.992;2023-06-14T05:56:14;112171.53;;;-144.33;49.88
19843;BME280;10082;51.038;6.992;2023-06-14T05:58:43;112171.53;;;-144.33;49.62
19843;BME280;10082;51.038;6.992;2023-06-14T06:01:10;112171.53;;;-144.33;48.22
19843;BME280;10082;51.038;6.992;2023-06-14T06:03:38;112171.53;;;-144.33;48.53
19843;BME280;10082;51.038;6.992;2023-06-14T06:06:05;112171.53;;;-144.33;47.41
19843;BME280;10082;51.038;6.992;2023-06-14T06:08:33;112171.53;;;-144.33;46.99
19843;BME280;10082;51.038;6.992;2023-06-14T06:11:02;112171.53;;;-144.33;48.79
19843;BME280;10082;51.038;6.992;2023-06-14T06:13:29;112171.53;;;-144.33;47.68
19843;BME280;10082;51.038;6.992;2023-06-14T06:15:56;112171.53;;;-144.33;48.22
19843;BME280;10082;51.038;6.992;2023-06-14T06:18:24;112171.53;;;-144.33;50.19
19843;BME280;10082;51.038;6.992;2023-06-14T06:20:51;112171.53;;;-144.33;51.87
19843;BME280;10082;51.038;6.992;2023-06-14T06:23:18;112171.53;;;-144.33;52.72
19843;BME280;10082;51.038;6.992;2023-06-14T06:25:45;112171.53;;;-144.33;52.70
19843;BME280;10082;51.038;6.992;2023-06-14T06:28:16;112171.53;;;-144.33;51.15
19843;BME280;10082;51.038;6.992;2023-06-14T06:30:43;112171.53;;;-144.33;50.61
19843;BME280;10082;51.038;6.992;2023-06-14T06:33:10;112171.53;;;-144.33;49.41
19843;BME280;10082;51.038;6.992;2023-06-14T06:35:37;112171.53;;;-144.33;47.43
19843;BME280;10082;51.038;6.992;2023-06-14T06:38:04;112171.53;;;-144.33;48.17
19843;BME280;10082;51.038;6.992;2023-06-14T06:40:31;112171.53;;;-144.33;45.85
19843;BME280;10082;51.038;6.992;2023-06-14T06:42:58;112171.53;;;-144.33;43.84
19843;BME280;10082;51.038;6.992;2023-06-14T06:45:28;112171.53;;;-144.33;44.04
19843;BME280;10082;51.038;6.992;2023-06-14T06:47:56;112171.53;;;-144.33;43.23
19843;BME280;10082;51.038;6.992;2023-06-14T06:50:23;112171.53;;;-144.33;42.10
19843;BME280;10082;51.038;6.992;2023-06-14T06:52:50;112171.53;;;-144.33;41.20
19843;BME280;10082;51.038;6.992;2023-06-14T06:55:18;112171.53;;;-144.33;39.39
19843;BME280;10082;51.038;6.992;2023-06-14T06:57:45;112171.53;;;-144.33;39.13
19843;BME280;10082;51.038;6.992;2023-06-14T07:00:12;112171.53;;;-144.33;38.20
19843;BME280;10082;51.038;6.992;2023-06-14T07:02:41;112171.53;;;-144.33;38.28
19843;BME280;10082;51.038;6.992;2023-06-14T07:05:10;112171.53;;;-144.33;39.12
19843;BME280;10082;51.038;6.992;2023-06-14T07:07:37;112171.53;;;-144.33;38.96
19843;BME280;10082;51.038;6.992;2023-06-14T07:10:04;112171.53;;;-144.33;37.89
19843;BME280;10082;51.038;6.992;2023-06-14T07:12:32;112171.53;;;-144.33;38.50
19843;BME280;10082;51.038;6.992;2023-06-14T07:15:05;112171.53;;;-144.33;36.97
19843;BME280;10082;51.038;6.992;2023-06-14T07:17:32;112171.53;;;-144.33;37.80
19843;BME280;10082;51.038;6.992;2023-06-14T07:20:01;112171.53;;;-144.33;38.46
19843;BME280;10082;51.038;6.992;2023-06-14T07:22:38;112171.53;;;-144.33;37.31
19843;BME280;10082;51.038;6.992;2023-06-14T07:25:07;112171.53;;;-144.33;37.43
19843;BME280;10082;51.038;6.992;2023-06-14T07:27:34;112171.53;;;-144.33;37.50
19843;BME280;10082;51.038;6.992;2023-06-14T07:30:00;112171.53;;;-144.33;37.31
19843;BME280;10082;51.038;6.992;2023-06-14T07:32:27;112171.53;;;-144.33;36.69
19843;BME280;10082;51.038;6.992;2023-06-14T07:34:54;112171.53;;;-144.33;35.70
19843;BME280;10082;51.038;6.992;2023-06-14T07:37:23;112171.53;;;-144.33;35.38
19843;BME280;10082;51.038;6.992;2023-06-14T07:39:50;112171.53;;;-144.33;34.25
19843;BME280;10082;51.038;6.992;2023-06-14T07:42:17;112171.53;;;-144.33;33.61
19843;BME280;10082;51.038;6.992;2023-06-14T07:44:45;112171.53;;;-144.33;33.81
19843;BME280;10082;51.038;6.992;2023-06-14T07:47:12;112171.53;;;-144.33;34.04
19843;BME280;10082;51.038;6.992;2023-06-14T07:49:39;112171.53;;;-144.33;32.62
19843;BME280;10082;51.038;6.992;2023-06-14T07:52:07;112171.53;;;-144.33;32.68
19843;BME280;10082;51.038;6.992;2023-06-14T07:54:36;112171.53;;;-144.33;31.92
19843;BME280;10082;51.038;6.992;2023-06-14T07:57:04;112171.53;;;-144.33;31.87
19843;BME280;10082;51.038;6.992;2023-06-14T07:59:31;112171.53;;;-144.33;30.35
19843;BME280;10082;51.038;6.992;2023-06-14T08:01:58;112171.53;;;-144.33;29.21
19843;BME280;10082;51.038;6.992;2023-06-14T08:04:25;112171.53;;;-144.33;30.32
19843;BME280;10082;51.038;6.992;2023-06-14T08:06:52;112171.53;;;-144.33;29.35
19843;BME280;10082;51.038;6.992;2023-06-14T08:09:20;112171.53;;;-144.33;30.71
19843;BME280;10082;51.038;6.992;2023-06-14T08:11:49;112171.53;;;-144.33;29.29
19843;BME280;10082;51.038;6.992;2023-06-14T08:14:16;112171.53;;;-144.33;29.90
19843;BME280;10082;51.038;6.992;2023-06-14T08:16:42;112171.53;;;-144.33;29.83
19843;BME280;10082;51.038;6.992;2023-06-14T08:19:09;112171.53;;;-144.33;29.36
19843;BME280;10082;51.038;6.992;2023-06-14T08:21:37;112171.53;;;-144.33;28.89
19843;BME280;10082;51.038;6.992;2023-06-14T08:24:04;112171.53;;;-144.33;28.98
19843;BME280;10082;51.038;6.992;2023-06-14T08:26:31;112171.53;;;-144.33;29.60
19843;BME280;10082;51.038;6.992;2023-06-14T08:29:00;112171.53;;;-144.33;29.00
19843;BME280;10082;51.038;6.992;2023-06-14T08:31:27;112171.53;;;-144.33;29.00
19843;BME280;10082;51.038;6.992;2023-06-14T08:33:54;112171.53;;;-144.33;28.75
19843;BME280;10082;51.038;6.992;2023-06-14T08:36:26;112171.53;;;-144.33;28.51
19843;BME280;10082;51.038;6.992;2023-06-14T08:38:53;112171.53;;;-144.33;28.66
19843;BME280;10082;51.038;6.992;2023-06-14T08:41:22;112171.53;;;-144.33;28.86
19843;BME280;10082;51.038;6.992;2023-06-14T08:43:50;112171.53;;;-144.33;28.77
19843;BME280;10082;51.038;6.992;2023-06-14T08:46:19;112171.53;;;-144.33;28.13
19843;BME280;10082;51.038;6.992;2023-06-14T08:48:49;112171.53;;;-144.33;29.14
19843;BME280;10082;51.038;6.992;2023-06-14T08:51:18;112171.53;;;-144.33;28.95
19843;BME280;10082;51.038;6.992;2023-06-14T08:53:51;112171.53;;;-144.33;28.20
19843;BME280;10082;51.038;6.992;2023-06-14T08:56:19;112171.53;;;-144.33;28.75
19843;BME280;10082;51.038;6.992;2023-06-14T08:58:47;112171.53;;;-144.33;28.61
19843;BME280;10082;51.038;6.992;2023-06-14T09:01:15;112171.53;;;-144.33;28.51
19843;BME280;10082;51.038;6.992;2023-06-14T09:03:45;112171.53;;;-144.33;30.08
19843;BME280;10082;51.038;6.992;2023-06-14T09:06:13;112171.53;;;-144.33;29.11
19843;BME280;10082;51.038;6.992;2023-06-14T09:08:42;112171.53;;;-144.33;28.54
19843;BME280;10082;51.038;6.992;2023-06-14T09:11:11;112171.53;;;-144.33;28.81
19843;BME280;10082;51.038;6.992;2023-06-14T09:13:39;112171.53;;;-144.33;28.05
19843;BME280;10082;51.038;6.992;2023-06-14T09:16:07;112171.53;;;-144.33;28.27
19843;BME280;10082;51.038;6.992;2023-06-14T09:18:38;112171.53;;;-144.33;28.37
19843;BME280;10082;51.038;6.992;2023-06-14T09:21:08;112171.53;;;-144.33;28.36
19843;BME280;10082;51.038;6.992;2023-06-14T09:23:36;112171.53;;;-144.33;28.48
19843;BME280;10082;51.038;6.992;2023-06-14T09:26:08;112171.53;;;-144.33;28.59
19843;BME280;10082;51.038;6.992;2023-06-14T09:28:35;112171.53;;;-144.33;30.17
19843;BME280;10082;51.038;6.992;2023-06-14T09:31:02;112171.53;;;-144.33;29.28
19843;BME280;10082;51.038;6.992;2023-06-14T09:33:30;112171.53;;;-144.33;28.29
19843;BME280;10082;51.038;6.992;2023-06-14T09:35:57;112171.53;;;-144.33;28.40
19843;BME280;10082;51.038;6.992;2023-06-14T09:38:26;112171.53;;;-144.33;28.98
19843;BME280;10082;51.038;6.992;2023-06-14T09:40:56;112171.53;;;-144.33;29.44
19843;BME280;10082;51.038;6.992;2023-06-14T09:43:23;112171.53;;;-144.33;29.32
19843;BME280;10082;51.038;6.992;2023-06-14T09:45:54;112171.53;;;-144.33;29.19
19843;BME280;10082;51.038;6.992;2023-06-14T09:48:30;112171.53;;;-144.33;28.75
19843;BME280;10082;51.038;6.992;2023-06-14T09:50:58;112171.53;;;-144.33;28.29
19843;BME280;10082;51.038;6.992;2023-06-14T09:53:30;112171.53;;;-144.33;28.06
19843;BME280;10082;51.038;6.992;2023-06-14T09:55:59;112171.53;;;-144.33;29.66
19843;BME280;10082;51.038;6.992;2023-06-14T09:58:28;112171.53;;;-144.33;28.95
19843;BME280;10082;51.038;6.992;2023-06-14T10:00:57;112171.53;;;-144.33;31.42
19843;BME280;10082;51.038;6.992;2023-06-14T10:03:28;112171.53;;;-144.33;31.54
19843;BME280;10082;51.038;6.992;2023-06-14T10:05:58;112171.53;;;-144.33;28.88
19843;BME280;10082;51.038;6.992;2023-06-14T10:08:31;112171.53;;;-144.33;29.26
19843;BME280;10082;51.038;6.992;2023-06-14T10:11:01;112171.53;;;-144.33;28.31
19843;BME280;10082;51.038;6.992;2023-06-14T10:13:31;112171.53;;;-144.33;28.23
19843;BME280;10082;51.038;6.992;2023-06-14T10:16:07;112171.53;;;-144.33;28.34
19843;BME280;10082;51.038;6.992;2023-06-14T10:18:42;112171.53;;;-144.33;29.48
19843;BME280;10082;51.038;6.992;2023-06-14T10:21:18;112171.53;;;-144.33;31.59
19843;BME280;10082;51.038;6.992;2023-06-14T10:23:49;112171.53;;;-144.33;31.13
19843;BME280;10082;51.038;6.992;2023-06-14T10:26:20;112171.53;;;-144.33;28.67
19843;BME280;10082;51.038;6.992;2023-06-14T10:29:07;112171.53;;;-144.33;29.01
19843;BME280;10082;51.038;6.992;2023-06-14T10:31:42;112171.53;;;-144.33;29.21
19843;BME280;10082;51.038;6.992;2023-06-14T10:34:09;112171.53;;;-144.33;29.13
19843;BME280;10082;51.038;6.992;2023-06-14T10:36:41;112171.53;;;-144.33;30.05
19843;BME280;10082;51.038;6.992;2023-06-14T10:39:15;112171.53;;;-144.33;29.28
19843;BME280;10082;51.038;6.992;2023-06-14T10:41:52;112171.53;;;-144.33;29.48
19843;BME280;10082;51.038;6.992;2023-06-14T10:44:39;112171.53;;;-144.33;29.90
19843;BME280;10082;51.038;6.992;2023-06-14T10:47:08;112171.53;;;-144.33;29.39
19843;BME280;10082;51.038;6.992;2023-06-14T10:49:38;112171.53;;;-144.33;28.87
19843;BME280;10082;51.038;6.992;2023-06-14T10:52:15;112171.53;;;-144.33;29.89
19843;BME280;10082;51.038;6.992;2023-06-14T10:55:06;112171.53;;;-144.33;29.13
19843;BME280;10082;51.038;6.992;2023-06-14T10:57:38;112171.53;;;-144.33;28.84
19843;BME280;10082;51.038;6.992;2023-06-14T11:00:06;112171.53;;;-144.33;27.56
19843;BME280;10082;51.038;6.992;2023-06-14T11:05:55;112171.53;;;-144.33;28.13
19843;BME280;10082;51.038;6.992;2023-06-14T11:08:56;112171.53;;;-144.33;29.17
19843;BME280;10082;51.038;6.992;2023-06-14T11:11:36;112171.53;;;-144.33;27.98
19843;BME280;10082;51.038;6.992;2023-06-14T11:14:04;112171.53;;;-144.33;27.79
19843;BME280;10082;51.038;6.992;2023-06-14T11:16:31;112171.53;;;-144.33;28.39
19843;BME280;10082;51.038;6.992;2023-06-14T11:19:00;112171.53;;;-144.33;30.01
19843;BME280;10082;51.038;6.992;2023-06-14T11:21:28;112171.53;;;-144.33;29.55
19843;BME280;10082;51.038;6.992;2023-06-14T11:23:58;112171.53;;;-144.33;29.58
19843;BME280;10082;51.038;6.992;2023-06-14T11:26:25;112171.53;;;-144.33;28.90
19843;BME280;10082;51.038;6.992;2023-06-14T11:28:59;112171.53;;;-144.33;30.31
19843;BME280;10082;51.038;6.992;2023-06-14T11:31:27;112171.53;;;-144.33;29.21
19843;BME280;10082;51.038;6.992;2023-06-14T11:33:55;112171.53;;;-144.33;29.67
19843;BME280;10082;51.038;6.992;2023-06-14T11:36:23;112171.53;;;-144.33;29.28
19843;BME280;10082;51.038;6.992;2023-06-14T11:38:50;112171.53;;;-144.33;28.80
19843;BME280;10082;51.038;6.992;2023-06-14T11:41:24;112171.53;;;-144.33;27.84
19843;BME280;10082;51.038;6.992;2023-06-14T11:43:52;112171.53;;;-144.33;27.02
19843;BME280;10082;51.038;6.992;2023-06-14T11:46:21;112171.53;;;-144.33;28.26
19843;BME280;10082;51.038;6.992;2023-06-14T11:48:51;112171.53;;;-144.33;27.74
19843;BME280;10082;51.038;6.992;2023-06-14T11:51:19;112171.53;;;-144.33;26.38
19843;BME280;10082;51.038;6.992;2023-06-14T11:53:47;112171.53;;;-144.33;25.85
19843;BME280;10082;51.038;6.992;2023-06-14T11:56:14;112171.53;;;-144.33;25.26
19843;BME280;10082;51.038;6.992;2023-06-14T11:58:42;112171.53;;;-144.33;25.41
19843;BME280;10082;51.038;6.992;2023-06-14T12:01:14;112171.53;;;-144.33;25.60
19843;BME280;10082;51.038;6.992;2023-06-14T12:03:48;112171.53;;;-144.33;25.26
19843;BME280;10082;51.038;6.992;2023-06-14T12:06:15;112171.53;;;-144.33;26.02
19843;BME280;10082;51.038;6.992;2023-06-14T12:08:44;112171.53;;;-144.33;26.46
19843;BME280;10082;51.038;6.992;2023-06-14T12:11:13;112171.53;;;-144.33;26.47
19843;BME280;10082;51.038;6.992;2023-06-14T12:13:41;112171.53;;;-144.33;25.40
19843;BME280;10082;51.038;6.992;2023-06-14T12:16:09;112171.53;;;-144.33;26.12
19843;BME280;10082;51.038;6.992;2023-06-14T12:18:38;112171.53;;;-144.33;25.88
19843;BME280;10082;51.038;6.992;2023-06-14T12:21:09;112171.53;;;-144.33;26.30
19843;BME280;10082;51.038;6.992;2023-06-14T12:23:43;112171.53;;;-144.33;26.02
19843;BME280;10082;51.038;6.992;2023-06-14T12:26:13;112171.53;;;-144.33;26.04
19843;BME280;10082;51.038;6.992;2023-06-14T12:28:41;112171.53;;;-144.33;25.53
19843;BME280;10082;51.038;6.992;2023-06-14T12:31:08;112171.53;;;-144.33;24.78
19843;BME280;10082;51.038;6.992;2023-06-14T12:33:36;112171.53;;;-144.33;26.05
19843;BME280;10082;51.038;6.992;2023-06-14T12:36:04;112171.53;;;-144.33;25.39
19843;BME280;10082;51.038;6.992;2023-06-14T12:38:34;112171.53;;;-144.33;24.96
19843;BME280;10082;51.038;6.992;2023-06-14T12:41:02;112171.53;;;-144.33;26.80
19843;BME280;10082;51.038;6.992;2023-06-14T12:43:29;112171.53;;;-144.33;25.85